createdAt,value
2022-08-17T00:00:14.698Z,24.00
2022-08-17T00:02:57.000Z,23.90
2022-08-17T00:05:24.632Z,23.90
2022-08-17T00:07:51.444Z,23.90
2022-08-17T00:10:18.576Z,23.90
2022-08-17T00:12:45.457Z,23.70
2022-08-17T00:15:13.825Z,23.70
2022-08-17T00:17:43.940Z,23.90
2022-08-17T00:20:12.058Z,23.90
2022-08-17T00:22:38.787Z,23.80
2022-08-17T00:25:09.400Z,23.80
2022-08-17T00:27:36.926Z,23.80
2022-08-17T00:30:06.743Z,23.80
2022-08-17T00:33:23.257Z,23.70
2022-08-17T00:35:29.302Z,23.70
2022-08-17T00:37:56.026Z,23.70
2022-08-17T00:40:24.801Z,23.70
2022-08-17T00:42:52.728Z,23.70
2022-08-17T00:45:20.755Z,23.60
2022-08-17T00:47:47.932Z,23.70
2022-08-17T00:50:17.647Z,23.70
2022-08-17T00:52:57.254Z,23.70
2022-08-17T00:55:25.170Z,23.70
2022-08-17T00:57:56.921Z,23.80
2022-08-17T01:00:30.180Z,23.70
2022-08-17T01:03:01.989Z,23.70
2022-08-17T01:05:31.887Z,23.80
2022-08-17T01:08:00.509Z,23.70
2022-08-17T01:10:59.690Z,23.70
2022-08-17T01:13:23.504Z,23.70
2022-08-17T01:16:06.762Z,23.70
2022-08-17T01:18:34.171Z,23.70
2022-08-17T01:21:09.039Z,23.60
2022-08-17T01:23:36.304Z,23.60
2022-08-17T01:26:05.373Z,23.60
2022-08-17T01:28:54.289Z,23.50
2022-08-17T01:31:25.195Z,23.60
2022-08-17T01:33:52.310Z,23.60
2022-08-17T01:36:19.204Z,23.80
2022-08-17T01:38:45.910Z,23.90
2022-08-17T01:41:16.250Z,23.90
2022-08-17T01:44:00.277Z,24.00
2022-08-17T01:46:30.938Z,24.10
2022-08-17T01:48:58.416Z,24.10
2022-08-17T01:51:32.387Z,24.10
2022-08-17T01:54:03.320Z,24.10
2022-08-17T01:56:32.483Z,23.90
2022-08-17T01:58:59.456Z,24.00
2022-08-17T02:01:29.839Z,24.10
2022-08-17T02:04:00.943Z,24.10
2022-08-17T02:06:53.745Z,24.10
2022-08-17T02:09:25.512Z,24.20
2022-08-17T02:11:54.458Z,24.20
2022-08-17T02:14:21.815Z,24.20
2022-08-17T02:16:48.915Z,24.20
2022-08-17T02:19:16.864Z,24.20
2022-08-17T02:21:47.062Z,24.30
2022-08-17T02:25:00.888Z,24.20
2022-08-17T02:27:06.007Z,24.20
2022-08-17T02:29:32.889Z,24.40
2022-08-17T02:32:01.724Z,24.50
2022-08-17T02:34:28.786Z,24.50
2022-08-17T02:36:55.682Z,24.50
2022-08-17T02:39:22.400Z,24.50
2022-08-17T02:41:49.130Z,24.50
2022-08-17T02:44:35.408Z,24.40
2022-08-17T02:47:02.582Z,24.40
2022-08-17T02:49:29.271Z,24.30
2022-08-17T02:51:58.143Z,24.30
2022-08-17T02:54:40.375Z,24.30
2022-08-17T02:57:09.980Z,24.30
2022-08-17T02:59:37.818Z,24.40
2022-08-17T03:02:06.188Z,24.20
2022-08-17T03:04:35.175Z,24.30
2022-08-17T03:07:02.379Z,24.20
2022-08-17T03:09:29.111Z,24.30
2022-08-17T03:12:03.316Z,23.90
2022-08-17T03:14:32.115Z,24.20
2022-08-17T03:16:59.180Z,24.20
2022-08-17T03:19:25.919Z,24.20
2022-08-17T03:21:54.858Z,24.20
2022-08-17T03:24:22.108Z,24.20
2022-08-17T03:26:55.563Z,24.20
2022-08-17T03:29:22.253Z,24.20
2022-08-17T03:31:49.614Z,24.40
2022-08-17T03:34:17.198Z,24.60
2022-08-17T03:36:44.345Z,24.30
2022-08-17T03:39:11.029Z,24.30
2022-08-17T03:41:39.145Z,24.40
2022-08-17T03:44:05.947Z,24.30
2022-08-17T03:46:51.078Z,24.30
2022-08-17T03:49:36.556Z,24.40
2022-08-17T03:52:21.803Z,24.40
2022-08-17T03:55:07.278Z,24.40
2022-08-17T03:57:33.930Z,24.50
2022-08-17T04:00:00.656Z,24.50
2022-08-17T04:02:32.836Z,24.40
2022-08-17T04:05:00.106Z,24.60
2022-08-17T04:07:30.376Z,24.50
2022-08-17T04:09:58.059Z,24.30
2022-08-17T04:12:25.698Z,24.40
2022-08-17T04:14:54.722Z,24.30
2022-08-17T04:17:27.782Z,24.20
2022-08-17T04:19:55.364Z,23.80
2022-08-17T04:22:30.930Z,23.90
2022-08-17T04:25:24.758Z,24.00
2022-08-17T04:27:51.421Z,23.90
2022-08-17T04:30:18.139Z,23.90
2022-08-17T04:33:07.300Z,23.90
2022-08-17T04:35:47.676Z,23.90
2022-08-17T04:38:20.454Z,24.00
2022-08-17T04:41:06.735Z,24.10
2022-08-17T04:43:34.743Z,24.10
2022-08-17T04:46:08.539Z,23.90
2022-08-17T04:48:41.411Z,24.00
2022-08-17T04:51:18.158Z,23.90
2022-08-17T04:53:54.104Z,23.80
2022-08-17T04:56:23.216Z,23.70
2022-08-17T04:58:51.633Z,23.60
2022-08-17T05:01:23.306Z,23.60
2022-08-17T05:03:54.502Z,24.20
2022-08-17T05:06:21.787Z,23.60
2022-08-17T05:08:48.901Z,23.40
2022-08-17T05:11:15.785Z,23.40
2022-08-17T05:13:42.504Z,23.60
2022-08-17T05:16:09.392Z,23.50
2022-08-17T05:18:37.187Z,23.50
2022-08-17T05:21:04.202Z,23.50
2022-08-17T05:23:41.716Z,23.50
2022-08-17T05:26:18.610Z,23.50
2022-08-17T05:28:52.720Z,23.40
2022-08-17T05:31:21.068Z,23.70
2022-08-17T05:33:49.415Z,23.40
2022-08-17T05:36:42.300Z,23.30
2022-08-17T05:39:03.141Z,23.30
2022-08-17T05:41:29.796Z,23.30
2022-08-17T05:43:56.790Z,23.30
2022-08-17T05:46:32.767Z,23.10
2022-08-17T05:49:10.914Z,23.20
2022-08-17T05:51:56.188Z,23.30
2022-08-17T05:54:34.266Z,23.30
2022-08-17T05:57:06.660Z,23.30
2022-08-17T06:00:05.196Z,23.30
2022-08-17T06:02:48.105Z,23.20
2022-08-17T06:05:35.545Z,23.20
2022-08-17T06:08:39.968Z,23.30
2022-08-17T06:11:22.757Z,23.30
2022-08-17T06:14:24.767Z,23.30
2022-08-17T06:16:58.434Z,23.40
2022-08-17T06:19:33.335Z,23.50
2022-08-17T06:22:02.583Z,23.50
2022-08-17T06:24:38.626Z,23.60
2022-08-17T06:27:30.978Z,23.70
2022-08-17T06:30:15.231Z,23.90
2022-08-17T06:32:47.962Z,23.90
2022-08-17T06:35:19.184Z,23.90
2022-08-17T06:38:21.809Z,23.90
2022-08-17T06:41:19.763Z,23.80
2022-08-17T06:44:02.533Z,23.80
2022-08-17T06:46:39.969Z,23.90
2022-08-17T06:49:25.765Z,23.80
2022-08-17T06:52:07.911Z,24.60
2022-08-17T06:55:07.099Z,24.10
2022-08-17T06:57:38.888Z,24.20
2022-08-17T07:00:13.096Z,24.20
2022-08-17T07:03:07.601Z,24.20
2022-08-17T07:05:57.754Z,24.20
2022-08-17T07:08:35.038Z,24.20
2022-08-17T07:11:06.630Z,24.60
2022-08-17T07:14:04.674Z,24.20
2022-08-17T07:16:39.172Z,24.20
2022-08-17T07:19:07.276Z,24.20
2022-08-17T07:21:57.119Z,24.20
2022-08-17T07:24:37.176Z,24.00
2022-08-17T07:27:06.283Z,24.00
2022-08-17T07:29:57.600Z,24.10
2022-08-17T07:32:31.427Z,24.00
2022-08-17T07:35:37.712Z,24.10
2022-08-17T07:38:25.789Z,24.10
2022-08-17T07:41:05.065Z,24.00
2022-08-17T07:43:40.688Z,23.90
2022-08-17T07:46:49.963Z,23.90
2022-08-17T07:49:35.880Z,25.80
2022-08-17T07:52:50.313Z,23.80
2022-08-17T07:55:30.738Z,23.80
2022-08-17T07:57:58.966Z,23.80
2022-08-17T08:00:29.135Z,24.00
2022-08-17T08:03:03.123Z,23.80
2022-08-17T08:05:49.879Z,24.50
2022-08-17T08:08:42.616Z,24.10
2022-08-17T08:11:15.074Z,24.20
2022-08-17T08:13:43.753Z,24.20
2022-08-17T08:16:29.037Z,24.30
2022-08-17T08:18:59.576Z,24.30
2022-08-17T08:22:07.667Z,24.10
2022-08-17T08:24:40.476Z,24.20
2022-08-17T08:27:38.380Z,24.30
2022-08-17T08:30:17.139Z,24.30
2022-08-17T08:33:05.005Z,24.70
2022-08-17T08:35:33.607Z,24.50
2022-08-17T08:38:33.490Z,24.90
2022-08-17T08:41:36.791Z,24.70
2022-08-17T08:45:00.323Z,24.70
2022-08-17T08:47:20.342Z,24.70
2022-08-17T08:50:04.311Z,24.70
2022-08-17T08:52:49.654Z,24.80
2022-08-17T08:55:28.515Z,24.90
2022-08-17T08:58:07.634Z,25.10
2022-08-17T09:00:58.299Z,25.10
2022-08-17T09:04:21.524Z,25.00
2022-08-17T09:07:25.405Z,24.80
2022-08-17T09:09:59.662Z,24.70
2022-08-17T09:12:41.582Z,24.60
2022-08-17T09:15:32.023Z,24.50
2022-08-17T09:19:01.044Z,24.60
2022-08-17T09:21:33.839Z,24.70
2022-08-17T09:24:33.143Z,24.80
2022-08-17T09:27:08.123Z,24.90
2022-08-17T09:29:39.426Z,25.10
2022-08-17T09:32:28.363Z,24.80
2022-08-17T09:35:01.459Z,24.80
2022-08-17T09:37:42.924Z,24.70
2022-08-17T09:40:18.450Z,25.10
2022-08-17T09:43:14.106Z,24.50
2022-08-17T09:45:50.635Z,24.30
2022-08-17T09:48:29.292Z,24.00
2022-08-17T09:51:07.004Z,23.70
2022-08-17T09:53:36.909Z,23.40
2022-08-17T09:56:21.687Z,23.30
2022-08-17T09:59:17.049Z,23.10
2022-08-17T10:01:51.527Z,23.10
2022-08-17T10:04:23.753Z,23.00
2022-08-17T10:07:02.186Z,23.30
2022-08-17T10:09:39.696Z,23.60
2022-08-17T10:12:17.266Z,24.00
2022-08-17T10:15:38.060Z,24.30
2022-08-17T10:18:34.339Z,24.60
2022-08-17T10:21:27.020Z,24.80
2022-08-17T10:24:25.013Z,25.10
2022-08-17T10:26:56.481Z,24.90
2022-08-17T10:29:47.334Z,25.00
2022-08-17T10:32:45.983Z,25.10
2022-08-17T10:35:25.818Z,25.20
2022-08-17T10:38:04.870Z,25.10
2022-08-17T10:40:32.424Z,25.10
2022-08-17T10:43:29.783Z,25.20
2022-08-17T10:46:31.205Z,25.40
2022-08-17T10:49:21.512Z,25.50
2022-08-17T10:51:54.341Z,25.70
2022-08-17T10:54:40.536Z,25.70
2022-08-17T10:57:29.140Z,25.70
2022-08-17T10:59:57.340Z,25.50
2022-08-17T11:02:52.365Z,25.70
2022-08-17T11:05:50.275Z,25.80
2022-08-17T11:08:46.900Z,25.60
2022-08-17T11:11:23.192Z,25.40
2022-08-17T11:14:06.143Z,25.40
2022-08-17T11:16:53.289Z,25.40
2022-08-17T11:19:53.222Z,25.20
2022-08-17T11:22:57.926Z,25.50
2022-08-17T11:25:46.878Z,25.50
2022-08-17T11:28:34.332Z,25.30
2022-08-17T11:31:38.498Z,25.40
2022-08-17T11:34:26.213Z,25.30
2022-08-17T11:37:21.027Z,25.10
2022-08-17T11:40:06.609Z,25.00
2022-08-17T11:43:06.706Z,24.80
2022-08-17T11:46:03.296Z,24.60
2022-08-17T11:49:36.925Z,24.50
2022-08-17T11:52:04.874Z,24.40
2022-08-17T11:54:46.012Z,24.30
2022-08-17T11:57:27.849Z,24.30
2022-08-17T12:00:07.313Z,24.30
2022-08-17T12:02:38.697Z,24.40
2022-08-17T12:05:14.348Z,24.40
2022-08-17T12:08:00.605Z,24.30
2022-08-17T12:10:34.263Z,24.40
2022-08-17T12:13:12.963Z,24.40
2022-08-17T12:15:48.589Z,24.40
2022-08-17T12:18:35.546Z,24.40
2022-08-17T12:21:15.292Z,24.30
2022-08-17T12:24:06.452Z,24.30
2022-08-17T12:26:35.464Z,24.20
2022-08-17T12:29:18.448Z,24.20
2022-08-17T12:32:02.021Z,24.30
2022-08-17T12:34:50.463Z,24.30
2022-08-17T12:37:22.501Z,24.30
2022-08-17T12:40:16.658Z,24.80
2022-08-17T12:43:19.923Z,24.20
2022-08-17T12:45:58.060Z,24.10
2022-08-17T12:48:27.347Z,24.00
2022-08-17T12:51:01.432Z,24.20
2022-08-17T12:53:32.020Z,24.00
2022-08-17T12:56:00.943Z,24.20
2022-08-17T12:58:31.906Z,24.30
2022-08-17T13:01:13.574Z,24.50
2022-08-17T13:03:49.331Z,25.10
2022-08-17T13:06:35.234Z,24.70
2022-08-17T13:09:14.173Z,24.70
2022-08-17T13:11:56.196Z,24.70
2022-08-17T13:14:22.938Z,24.50
2022-08-17T13:16:53.388Z,24.70
2022-08-17T13:19:32.959Z,24.70
2022-08-17T13:22:10.735Z,24.80
2022-08-17T13:24:38.262Z,24.80
2022-08-17T13:27:09.521Z,24.70
2022-08-17T13:29:45.327Z,24.70
2022-08-17T13:32:33.452Z,24.60
2022-08-17T13:35:15.295Z,24.30
2022-08-17T13:38:01.367Z,24.40
2022-08-17T13:40:38.739Z,24.30
2022-08-17T13:43:05.597Z,24.30
2022-08-17T13:45:45.916Z,24.40
2022-08-17T13:48:27.168Z,24.30
2022-08-17T13:50:56.992Z,24.30
2022-08-17T13:53:40.156Z,24.30
2022-08-17T13:56:07.434Z,24.40
2022-08-17T13:59:00.080Z,24.50
2022-08-17T14:01:32.778Z,24.50
2022-08-17T14:04:02.982Z,24.50
2022-08-17T14:06:52.344Z,24.60
2022-08-17T14:09:26.544Z,24.60
2022-08-17T14:11:54.438Z,24.60
2022-08-17T14:14:23.007Z,24.60
2022-08-17T14:16:50.923Z,24.70
2022-08-17T14:19:17.984Z,24.70
2022-08-17T14:21:46.474Z,24.70
2022-08-17T14:24:24.100Z,24.80
2022-08-17T14:26:54.632Z,24.80
2022-08-17T14:29:22.954Z,24.80
2022-08-17T14:31:54.159Z,25.00
2022-08-17T14:34:25.186Z,25.00
2022-08-17T14:36:52.108Z,25.30
2022-08-17T14:39:20.335Z,25.20
2022-08-17T14:41:47.055Z,25.20
2022-08-17T14:44:13.752Z,25.20
2022-08-17T14:46:43.178Z,25.20
2022-08-17T14:49:12.275Z,25.20
2022-08-17T14:51:44.009Z,25.20
2022-08-17T14:54:11.654Z,25.20
2022-08-17T14:57:11.561Z,25.10
2022-08-17T14:59:45.047Z,25.00
2022-08-17T15:02:12.911Z,25.10
2022-08-17T15:04:44.890Z,25.10
2022-08-17T15:07:12.286Z,25.10
2022-08-17T15:09:39.090Z,25.10
2022-08-17T15:12:06.633Z,25.10
2022-08-17T15:14:35.332Z,25.10
2022-08-17T15:17:05.565Z,25.20
2022-08-17T15:19:32.261Z,25.10
2022-08-17T15:21:58.976Z,25.10
2022-08-17T15:24:25.659Z,25.00
2022-08-17T15:26:52.305Z,25.00
2022-08-17T15:29:18.988Z,25.20
2022-08-17T15:31:45.752Z,25.00
2022-08-17T15:34:12.407Z,25.00
2022-08-17T15:36:43.869Z,25.00
2022-08-17T15:39:19.655Z,25.10
2022-08-17T15:41:47.215Z,24.80
2022-08-17T15:44:30.228Z,25.00
2022-08-17T15:47:02.008Z,25.00
2022-08-17T15:49:28.678Z,25.00
2022-08-17T15:51:55.427Z,25.10
2022-08-17T15:54:23.536Z,25.10
2022-08-17T15:56:50.670Z,25.30
2022-08-17T15:59:17.336Z,25.20
2022-08-17T16:03:14.735Z,25.50
2022-08-17T16:04:31.906Z,25.40
2022-08-17T16:06:59.815Z,25.80
2022-08-17T16:09:27.035Z,26.00
2022-08-17T16:11:55.581Z,26.20
2022-08-17T16:14:24.376Z,26.00
2022-08-17T16:16:51.834Z,26.00
2022-08-17T16:19:18.620Z,25.90
2022-08-17T16:21:45.264Z,25.80
2022-08-17T16:24:12.709Z,25.70
2022-08-17T16:26:40.664Z,25.60
2022-08-17T16:29:08.249Z,25.40
2022-08-17T16:31:37.430Z,25.40
2022-08-17T16:34:17.799Z,25.40
2022-08-17T16:36:55.795Z,25.40
2022-08-17T16:39:27.637Z,25.50
2022-08-17T16:41:55.787Z,25.50
2022-08-17T16:44:22.651Z,25.60
2022-08-17T16:46:50.147Z,25.60
2022-08-17T16:49:36.039Z,25.60
2022-08-17T16:52:06.135Z,25.60
2022-08-17T16:54:33.383Z,25.30
2022-08-17T16:57:00.160Z,25.40
2022-08-17T16:59:30.840Z,25.60
2022-08-17T17:02:12.871Z,25.30
2022-08-17T17:04:56.365Z,25.30
2022-08-17T17:07:49.616Z,25.30
2022-08-17T17:10:21.082Z,25.30
2022-08-17T17:13:01.414Z,25.30
2022-08-17T17:15:54.912Z,25.70
2022-08-17T17:18:31.649Z,25.30
2022-08-17T17:20:58.598Z,25.30
2022-08-17T17:23:38.135Z,25.30
2022-08-17T17:26:28.049Z,25.20
2022-08-17T17:29:26.630Z,25.20
2022-08-17T17:32:09.409Z,25.10
2022-08-17T17:34:37.787Z,25.10
2022-08-17T17:37:11.412Z,25.10
2022-08-17T17:39:44.670Z,24.80
2022-08-17T17:42:19.970Z,25.00
2022-08-17T17:45:18.471Z,24.70
2022-08-17T17:47:45.745Z,24.90
2022-08-17T17:50:13.167Z,24.80
2022-08-17T17:53:02.050Z,24.80
2022-08-17T17:55:31.497Z,24.80
2022-08-17T17:58:28.270Z,24.80
2022-08-17T18:01:10.202Z,24.80
2022-08-17T18:04:08.302Z,24.70
2022-08-17T18:07:11.203Z,24.60
2022-08-17T18:10:02.680Z,24.60
2022-08-17T18:12:36.787Z,24.40
2022-08-17T18:15:24.861Z,24.30
2022-08-17T18:18:38.875Z,24.40
2022-08-17T18:21:21.257Z,24.40
2022-08-17T18:23:53.000Z,24.30
2022-08-17T18:26:56.738Z,24.40
2022-08-17T18:29:30.209Z,24.40
2022-08-17T18:32:36.947Z,24.40
2022-08-17T18:35:09.424Z,24.40
2022-08-17T18:37:51.677Z,24.30
2022-08-17T18:40:21.564Z,24.20
2022-08-17T18:43:11.208Z,24.20
2022-08-17T18:45:49.155Z,24.20
2022-08-17T18:48:32.972Z,24.20
2022-08-17T18:51:20.348Z,24.20
2022-08-17T18:54:16.368Z,24.00
2022-08-17T18:57:04.385Z,23.90
2022-08-17T18:59:48.135Z,23.80
2022-08-17T19:05:30.613Z,23.60
2022-08-17T19:08:18.471Z,23.80
2022-08-17T19:10:47.582Z,23.90
2022-08-17T19:13:46.890Z,23.70
2022-08-17T19:16:55.481Z,23.90
2022-08-17T19:19:26.616Z,24.00
2022-08-17T19:22:28.905Z,24.00
2022-08-17T19:25:09.533Z,23.90
2022-08-17T19:28:03.541Z,23.70
2022-08-17T19:30:30.851Z,23.90
2022-08-17T19:32:58.333Z,23.40
2022-08-17T19:35:34.026Z,24.00
2022-08-17T19:38:12.891Z,24.00
2022-08-17T19:40:54.524Z,24.00
2022-08-17T19:43:42.676Z,24.10
2022-08-17T19:46:25.920Z,24.10
2022-08-17T19:49:18.512Z,24.20
2022-08-17T19:51:56.958Z,24.10
2022-08-17T19:54:55.256Z,24.20
2022-08-17T19:58:00.815Z,24.20
2022-08-17T20:00:31.118Z,24.20
2022-08-17T20:03:22.086Z,24.20
2022-08-17T20:06:11.943Z,24.20
2022-08-17T20:09:33.414Z,24.10
2022-08-17T20:12:11.156Z,23.90
2022-08-17T20:14:53.601Z,23.90
2022-08-17T20:17:33.991Z,23.90
2022-08-17T20:20:35.895Z,24.00
2022-08-17T20:23:28.516Z,23.90
2022-08-17T20:26:23.284Z,23.80
2022-08-17T20:29:07.609Z,23.80
2022-08-17T20:31:42.380Z,23.60
2022-08-17T20:34:30.810Z,23.60
2022-08-17T20:37:24.656Z,23.60
2022-08-17T20:39:52.432Z,23.60
2022-08-17T20:42:21.926Z,23.60
2022-08-17T20:44:57.659Z,23.40
2022-08-17T20:48:07.787Z,23.30
2022-08-17T20:50:43.764Z,23.40
2022-08-17T20:53:13.444Z,23.30
2022-08-17T20:55:52.469Z,23.40
2022-08-17T20:58:30.110Z,23.50
2022-08-17T21:00:58.821Z,23.50
2022-08-17T21:03:28.557Z,23.40
2022-08-17T21:06:18.454Z,23.30
2022-08-17T21:09:19.274Z,23.20
2022-08-17T21:12:04.601Z,23.20
2022-08-17T21:14:34.287Z,23.00
2022-08-17T21:17:04.736Z,23.20
2022-08-17T21:20:07.715Z,23.00
2022-08-17T21:22:50.255Z,23.10
2022-08-17T21:25:41.523Z,23.00
2022-08-17T21:29:00.998Z,23.00
2022-08-17T21:31:35.050Z,23.10
2022-08-17T21:34:17.039Z,23.10
2022-08-17T21:36:45.684Z,23.10
2022-08-17T21:39:15.693Z,23.20
2022-08-17T21:41:52.810Z,23.10
2022-08-17T21:44:21.470Z,23.00
2022-08-17T21:46:50.954Z,23.00
2022-08-17T21:49:20.639Z,22.90
2022-08-17T21:51:50.420Z,23.00
2022-08-17T21:54:29.789Z,23.00
2022-08-17T21:56:58.580Z,22.90
2022-08-17T21:59:30.117Z,23.00
2022-08-17T22:02:02.542Z,23.00
2022-08-17T22:04:41.396Z,22.80
2022-08-17T22:07:13.445Z,22.90
2022-08-17T22:09:49.898Z,22.70
2022-08-17T22:12:21.780Z,22.90
2022-08-17T22:15:02.013Z,22.90
2022-08-17T22:17:35.448Z,22.70
2022-08-17T22:20:14.283Z,22.80
2022-08-17T22:23:08.469Z,22.80
2022-08-17T22:25:39.351Z,22.90
2022-08-17T22:28:11.513Z,22.90
2022-08-17T22:30:56.955Z,22.80
2022-08-17T22:33:34.889Z,22.80
2022-08-17T22:36:28.877Z,22.70
2022-08-17T22:39:00.868Z,22.60
2022-08-17T22:41:53.133Z,22.50
2022-08-17T22:44:35.475Z,22.60
2022-08-17T22:47:18.671Z,22.70
2022-08-17T22:49:59.212Z,22.70
2022-08-17T22:53:00.944Z,22.70
2022-08-17T22:55:48.872Z,22.70
2022-08-17T22:58:38.529Z,22.50
2022-08-17T23:01:28.300Z,22.60
2022-08-17T23:04:08.504Z,22.60
2022-08-17T23:06:36.942Z,22.60
2022-08-17T23:09:06.191Z,22.60
2022-08-17T23:11:48.615Z,22.60
2022-08-17T23:14:19.577Z,22.40
2022-08-17T23:16:47.463Z,22.60
2022-08-17T23:19:17.513Z,22.50
2022-08-17T23:21:45.009Z,22.40
2022-08-17T23:24:19.571Z,22.30
2022-08-17T23:26:46.290Z,22.30
2022-08-17T23:29:13.136Z,22.10
2022-08-17T23:31:40.387Z,22.30
2022-08-17T23:34:10.920Z,22.30
2022-08-17T23:36:38.128Z,22.40
2022-08-17T23:39:06.485Z,22.20
2022-08-17T23:41:36.262Z,22.40
2022-08-17T23:44:05.569Z,22.30
2022-08-17T23:46:32.666Z,22.40
2022-08-17T23:48:59.477Z,22.40
2022-08-17T23:51:44.039Z,22.40
2022-08-17T23:54:20.391Z,22.30
2022-08-17T23:56:47.128Z,22.40
2022-08-17T23:59:15.932Z,22.30
